sensor_id;sensor_type;location;lat;lon;timestamp;pressure;altitude;pressure_sealevel;temperature;humidity
43488;BME280;29078;41.932;25.554;2024-03-02T00:01:56;99224.00;;;10.64;68.02
43488;BME280;29078;41.932;25.554;2024-03-02T00:04:21;99217.09;;;10.63;68.12
43488;BME280;29078;41.932;25.554;2024-03-02T00:06:46;99215.88;;;10.65;68.13
43488;BME280;29078;41.932;25.554;2024-03-02T00:09:11;99215.06;;;10.65;67.87
43488;BME280;29078;41.932;25.554;2024-03-02T00:11:37;99218.09;;;10.62;68.33
43488;BME280;29078;41.932;25.554;2024-03-02T00:14:04;99214.75;;;10.53;68.73
43488;BME280;29078;41.932;25.554;2024-03-02T00:16:30;99206.56;;;10.48;68.63
43488;BME280;29078;41.932;25.554;2024-03-02T00:18:55;99204.75;;;10.48;67.02
43488;BME280;29078;41.932;25.554;2024-03-02T00:21:24;99207.50;;;10.40;69.08
43488;BME280;29078;41.932;25.554;2024-03-02T00:23:51;99202.53;;;10.37;69.29
43488;BME280;29078;41.932;25.554;2024-03-02T00:26:18;99205.81;;;10.39;68.24
43488;BME280;29078;41.932;25.554;2024-03-02T00:28:44;99197.91;;;10.39;67.88
43488;BME280;29078;41.932;25.554;2024-03-02T00:31:13;99195.25;;;10.39;68.07
43488;BME280;29078;41.932;25.554;2024-03-02T00:36:04;99197.63;;;10.34;69.22
43488;BME280;29078;41.932;25.554;2024-03-02T00:38:30;99188.53;;;10.37;68.60
43488;BME280;29078;41.932;25.554;2024-03-02T00:40:56;99188.34;;;10.38;67.75
43488;BME280;29078;41.932;25.554;2024-03-02T00:46:06;99183.38;;;10.29;69.02
43488;BME280;29078;41.932;25.554;2024-03-02T00:48:31;99186.38;;;10.26;69.92
43488;BME280;29078;41.932;25.554;2024-03-02T00:51:00;99186.19;;;10.27;69.59
43488;BME280;29078;41.932;25.554;2024-03-02T00:53:26;99175.63;;;10.27;69.71
43488;BME280;29078;41.932;25.554;2024-03-02T00:55:51;99178.44;;;10.26;70.45
43488;BME280;29078;41.932;25.554;2024-03-02T00:58:16;99180.09;;;10.27;69.39
43488;BME280;29078;41.932;25.554;2024-03-02T01:00:42;99174.63;;;10.28;69.05
43488;BME280;29078;41.932;25.554;2024-03-02T01:03:07;99177.28;;;10.28;68.51
43488;BME280;29078;41.932;25.554;2024-03-02T01:05:33;99175.81;;;10.26;69.97
43488;BME280;29078;41.932;25.554;2024-03-02T01:07:58;99172.38;;;10.25;69.37
43488;BME280;29078;41.932;25.554;2024-03-02T01:10:23;99176.44;;;10.28;69.39
43488;BME280;29078;41.932;25.554;2024-03-02T01:12:48;99186.56;;;10.24;70.56
43488;BME280;29078;41.932;25.554;2024-03-02T01:15:14;99191.47;;;10.27;69.59
43488;BME280;29078;41.932;25.554;2024-03-02T01:17:39;99190.28;;;10.30;68.81
43488;BME280;29078;41.932;25.554;2024-03-02T01:20:04;99195.38;;;10.31;69.00
43488;BME280;29078;41.932;25.554;2024-03-02T01:22:32;99194.56;;;10.31;69.49
43488;BME280;29078;41.932;25.554;2024-03-02T01:24:58;99200.84;;;10.30;69.95
43488;BME280;29078;41.932;25.554;2024-03-02T01:27:23;99189.66;;;10.28;69.25
43488;BME280;29078;41.932;25.554;2024-03-02T01:29:48;99190.28;;;10.30;70.15
43488;BME280;29078;41.932;25.554;2024-03-02T01:32:13;99180.53;;;10.30;69.74
43488;BME280;29078;41.932;25.554;2024-03-02T01:34:39;99188.09;;;10.33;69.91
43488;BME280;29078;41.932;25.554;2024-03-02T01:37:04;99178.97;;;10.36;69.35
43488;BME280;29078;41.932;25.554;2024-03-02T01:39:29;99177.97;;;10.37;69.18
43488;BME280;29078;41.932;25.554;2024-03-02T01:41:55;99178.78;;;10.37;69.39
43488;BME280;29078;41.932;25.554;2024-03-02T01:44:20;99178.16;;;10.35;69.96
43488;BME280;29078;41.932;25.554;2024-03-02T01:46:45;99168.78;;;10.33;69.51
43488;BME280;29078;41.932;25.554;2024-03-02T01:49:10;99166.34;;;10.31;69.05
43488;BME280;29078;41.932;25.554;2024-03-02T01:51:36;99165.16;;;10.34;69.75
43488;BME280;29078;41.932;25.554;2024-03-02T01:54:01;99164.53;;;10.32;69.35
43488;BME280;29078;41.932;25.554;2024-03-02T01:56:26;99164.91;;;10.29;70.20
43488;BME280;29078;41.932;25.554;2024-03-02T01:58:52;99167.09;;;10.25;70.35
43488;BME280;29078;41.932;25.554;2024-03-02T02:01:17;99168.97;;;10.16;70.65
43488;BME280;29078;41.932;25.554;2024-03-02T02:03:43;99161.88;;;10.17;71.19
43488;BME280;29078;41.932;25.554;2024-03-02T02:06:09;99158.44;;;10.16;70.67
43488;BME280;29078;41.932;25.554;2024-03-02T02:08:36;99154.97;;;10.16;71.07
43488;BME280;29078;41.932;25.554;2024-03-02T02:11:01;99152.34;;;10.16;70.78
43488;BME280;29078;41.932;25.554;2024-03-02T02:13:27;99153.53;;;10.13;70.55
43488;BME280;29078;41.932;25.554;2024-03-02T02:15:52;99153.53;;;10.13;69.97
43488;BME280;29078;41.932;25.554;2024-03-02T02:18:18;99154.72;;;10.11;70.49
43488;BME280;29078;41.932;25.554;2024-03-02T02:20:43;99151.06;;;10.12;69.19
43488;BME280;29078;41.932;25.554;2024-03-02T02:23:08;99152.88;;;10.11;70.65
43488;BME280;29078;41.932;25.554;2024-03-02T02:25:35;99145.16;;;10.10;69.86
43488;BME280;29078;41.932;25.554;2024-03-02T02:28:00;99150.25;;;10.11;70.72
43488;BME280;29078;41.932;25.554;2024-03-02T02:32:50;99145.41;;;10.15;71.04
43488;BME280;29078;41.932;25.554;2024-03-02T02:35:16;99158.25;;;10.18;69.90
43488;BME280;29078;41.932;25.554;2024-03-02T02:37:41;99159.25;;;10.17;71.75
43488;BME280;29078;41.932;25.554;2024-03-02T02:40:07;99160.88;;;10.18;70.47
43488;BME280;29078;41.932;25.554;2024-03-02T02:42:32;99159.88;;;10.19;70.67
43488;BME280;29078;41.932;25.554;2024-03-02T02:44:57;99154.34;;;10.14;71.85
43488;BME280;29078;41.932;25.554;2024-03-02T02:47:23;99156.59;;;10.17;70.85
43488;BME280;29078;41.932;25.554;2024-03-02T02:49:48;99143.78;;;10.14;70.98
43488;BME280;29078;41.932;25.554;2024-03-02T02:52:13;99151.06;;;10.12;71.32
43488;BME280;29078;41.932;25.554;2024-03-02T02:54:38;99148.63;;;10.10;70.12
43488;BME280;29078;41.932;25.554;2024-03-02T02:57:04;99151.06;;;10.12;69.96
43488;BME280;29078;41.932;25.554;2024-03-02T02:59:29;99149.25;;;10.12;70.59
43488;BME280;29078;41.932;25.554;2024-03-02T03:01:54;99149.44;;;10.11;69.98
43488;BME280;29078;41.932;25.554;2024-03-02T03:04:19;99150.63;;;10.08;70.00
43488;BME280;29078;41.932;25.554;2024-03-02T03:06:45;99140.63;;;10.04;70.68
43488;BME280;29078;41.932;25.554;2024-03-02T03:09:11;99146.91;;;10.03;70.16
43488;BME280;29078;41.932;25.554;2024-03-02T03:11:36;99147.34;;;10.06;70.95
43488;BME280;29078;41.932;25.554;2024-03-02T03:14:01;99142.34;;;10.11;70.53
43488;BME280;29078;41.932;25.554;2024-03-02T03:16:27;99137.69;;;10.13;71.17
43488;BME280;29078;41.932;25.554;2024-03-02T03:18:52;99134.06;;;10.14;69.53
43488;BME280;29078;41.932;25.554;2024-03-02T03:21:18;99151.88;;;10.12;70.53
43488;BME280;29078;41.932;25.554;2024-03-02T03:23:43;99142.16;;;10.13;70.48
43488;BME280;29078;41.932;25.554;2024-03-02T03:26:09;99146.25;;;10.15;70.70
43488;BME280;29078;41.932;25.554;2024-03-02T03:28:34;99145.06;;;10.18;68.82
43488;BME280;29078;41.932;25.554;2024-03-02T03:30:59;99148.88;;;10.15;70.58
43488;BME280;29078;41.932;25.554;2024-03-02T03:33:24;99150.50;;;10.16;69.34
43488;BME280;29078;41.932;25.554;2024-03-02T03:35:50;99149.50;;;10.17;68.31
43488;BME280;29078;41.932;25.554;2024-03-02T03:38:15;99146.97;;;10.09;70.59
43488;BME280;29078;41.932;25.554;2024-03-02T03:40:40;99141.06;;;10.07;71.02
43488;BME280;29078;41.932;25.554;2024-03-02T03:43:06;99138.25;;;10.09;70.88
43488;BME280;29078;41.932;25.554;2024-03-02T03:45:31;99151.25;;;10.10;71.34
43488;BME280;29078;41.932;25.554;2024-03-02T03:47:57;99145.34;;;10.08;70.98
43488;BME280;29078;41.932;25.554;2024-03-02T03:50:22;99140.25;;;10.07;72.17
43488;BME280;29078;41.932;25.554;2024-03-02T03:52:47;99137.63;;;10.07;70.76
43488;BME280;29078;41.932;25.554;2024-03-02T03:55:13;99130.53;;;10.07;71.25
43488;BME280;29078;41.932;25.554;2024-03-02T03:57:38;99128.16;;;10.12;71.11
43488;BME280;29078;41.932;25.554;2024-03-02T04:00:04;99129.97;;;10.12;71.82
43488;BME280;29078;41.932;25.554;2024-03-02T04:02:29;99131.59;;;10.13;71.24
43488;BME280;29078;41.932;25.554;2024-03-02T04:04:54;99131.22;;;10.16;70.99
43488;BME280;29078;41.932;25.554;2024-03-02T04:07:20;99135.50;;;10.17;71.67
43488;BME280;29078;41.932;25.554;2024-03-02T04:09:45;99131.41;;;10.14;72.21
43488;BME280;29078;41.932;25.554;2024-03-02T04:12:10;99137.81;;;10.20;68.83
43488;BME280;29078;41.932;25.554;2024-03-02T04:14:38;99144.41;;;10.16;70.90
43488;BME280;29078;41.932;25.554;2024-03-02T04:17:03;99141.78;;;10.16;69.99
43488;BME280;29078;41.932;25.554;2024-03-02T04:19:28;99143.97;;;10.12;72.27
43488;BME280;29078;41.932;25.554;2024-03-02T04:21:53;99145.78;;;10.12;71.33
43488;BME280;29078;41.932;25.554;2024-03-02T04:24:19;99148.25;;;10.13;71.79
43488;BME280;29078;41.932;25.554;2024-03-02T04:26:44;99142.16;;;10.13;71.77
43488;BME280;29078;41.932;25.554;2024-03-02T04:29:09;99144.97;;;10.11;72.46
43488;BME280;29078;41.932;25.554;2024-03-02T04:31:34;99141.69;;;10.09;72.20
43488;BME280;29078;41.932;25.554;2024-03-02T04:34:00;99158.09;;;10.05;73.03
43488;BME280;29078;41.932;25.554;2024-03-02T04:36:25;99147.34;;;10.06;71.52
43488;BME280;29078;41.932;25.554;2024-03-02T04:38:50;99159.91;;;10.04;73.45
43488;BME280;29078;41.932;25.554;2024-03-02T04:41:16;99154.81;;;10.03;73.31
43488;BME280;29078;41.932;25.554;2024-03-02T04:43:42;99153.00;;;10.03;73.97
43488;BME280;29078;41.932;25.554;2024-03-02T04:46:07;99134.72;;;10.02;72.46
43488;BME280;29078;41.932;25.554;2024-03-02T04:48:32;99147.72;;;10.03;73.34
43488;BME280;29078;41.932;25.554;2024-03-02T04:50:58;99145.25;;;10.02;71.93
43488;BME280;29078;41.932;25.554;2024-03-02T04:53:23;99153.53;;;9.99;72.29
43488;BME280;29078;41.932;25.554;2024-03-02T04:55:48;99145.44;;;10.00;72.57
43488;BME280;29078;41.932;25.554;2024-03-02T04:58:48;99135.53;;;10.02;73.65
43488;BME280;29078;41.932;25.554;2024-03-02T05:01:14;99141.44;;;10.04;72.69
43488;BME280;29078;41.932;25.554;2024-03-02T05:03:41;99122.16;;;10.04;72.44
43488;BME280;29078;41.932;25.554;2024-03-02T05:06:06;99129.25;;;10.03;72.21
43488;BME280;29078;41.932;25.554;2024-03-02T05:08:33;99143.63;;;10.01;72.60
43488;BME280;29078;41.932;25.554;2024-03-02T05:10:58;99146.09;;;10.02;72.09
43488;BME280;29078;41.932;25.554;2024-03-02T05:13:44;99128.06;;;10.06;72.70
43488;BME280;29078;41.932;25.554;2024-03-02T05:16:09;99155.91;;;10.08;72.22
43488;BME280;29078;41.932;25.554;2024-03-02T05:18:34;99161.63;;;10.12;71.71
43488;BME280;29078;41.932;25.554;2024-03-02T05:20:59;99139.06;;;10.09;72.55
43488;BME280;29078;41.932;25.554;2024-03-02T05:23:25;99130.97;;;10.11;72.84
43488;BME280;29078;41.932;25.554;2024-03-02T05:25:50;99150.44;;;10.10;73.36
43488;BME280;29078;41.932;25.554;2024-03-02T05:28:15;99157.72;;;10.08;73.20
43488;BME280;29078;41.932;25.554;2024-03-02T05:30:42;99133.16;;;10.07;73.04
43488;BME280;29078;41.932;25.554;2024-03-02T05:33:07;99143.34;;;10.10;71.74
43488;BME280;29078;41.932;25.554;2024-03-02T05:35:32;99137.88;;;10.12;72.83
43488;BME280;29078;41.932;25.554;2024-03-02T05:37:58;99146.44;;;10.14;72.74
43488;BME280;29078;41.932;25.554;2024-03-02T05:40:24;99138.50;;;10.14;71.78
43488;BME280;29078;41.932;25.554;2024-03-02T05:42:49;99148.88;;;10.15;72.44
43488;BME280;29078;41.932;25.554;2024-03-02T05:45:14;99130.41;;;10.15;72.41
43488;BME280;29078;41.932;25.554;2024-03-02T05:47:41;99147.69;;;10.18;71.82
43488;BME280;29078;41.932;25.554;2024-03-02T05:50:06;99169.34;;;10.13;73.22
43488;BME280;29078;41.932;25.554;2024-03-02T05:52:32;99177.06;;;10.15;71.95
43488;BME280;29078;41.932;25.554;2024-03-02T05:54:57;99189.09;;;10.17;72.77
43488;BME280;29078;41.932;25.554;2024-03-02T05:57:22;99190.56;;;10.20;73.52
43488;BME280;29078;41.932;25.554;2024-03-02T06:00:10;99180.00;;;10.20;73.12
43488;BME280;29078;41.932;25.554;2024-03-02T06:02:38;99180.81;;;10.21;71.65
43488;BME280;29078;41.932;25.554;2024-03-02T06:05:04;99163.00;;;10.23;72.28
43488;BME280;29078;41.932;25.554;2024-03-02T06:07:29;99164.25;;;10.27;71.99
43488;BME280;29078;41.932;25.554;2024-03-02T06:09:55;99165.53;;;10.31;71.94
43488;BME280;29078;41.932;25.554;2024-03-02T06:12:20;99178.09;;;10.29;71.52
43488;BME280;29078;41.932;25.554;2024-03-02T06:14:45;99179.66;;;10.23;72.87
43488;BME280;29078;41.932;25.554;2024-03-02T06:17:10;99178.28;;;10.27;71.14
43488;BME280;29078;41.932;25.554;2024-03-02T06:19:36;99168.16;;;10.31;71.76
43488;BME280;29078;41.932;25.554;2024-03-02T06:22:01;99172.25;;;10.33;71.95
43488;BME280;29078;41.932;25.554;2024-03-02T06:24:26;99170.06;;;10.37;72.18
43488;BME280;29078;41.932;25.554;2024-03-02T06:26:51;99177.34;;;10.35;70.93
43488;BME280;29078;41.932;25.554;2024-03-02T06:29:17;99168.16;;;10.31;71.33
43488;BME280;29078;41.932;25.554;2024-03-02T06:31:42;99161.69;;;10.33;70.67
43488;BME280;29078;41.932;25.554;2024-03-02T06:34:07;99158.88;;;10.35;72.25
43488;BME280;29078;41.932;25.554;2024-03-02T06:36:33;99160.69;;;10.34;71.73
43488;BME280;29078;41.932;25.554;2024-03-02T06:38:58;99176.16;;;10.37;69.64
43488;BME280;29078;41.932;25.554;2024-03-02T06:41:24;99178.78;;;10.37;70.10
43488;BME280;29078;41.932;25.554;2024-03-02T06:43:49;99175.97;;;10.39;71.09
43488;BME280;29078;41.932;25.554;2024-03-02T06:46:14;99167.91;;;10.40;71.04
43488;BME280;29078;41.932;25.554;2024-03-02T06:48:40;99169.53;;;10.41;70.85
43488;BME280;29078;41.932;25.554;2024-03-02T06:51:05;99176.16;;;10.37;72.12
43488;BME280;29078;41.932;25.554;2024-03-02T06:53:30;99174.97;;;10.40;71.57
43488;BME280;29078;41.932;25.554;2024-03-02T06:55:58;99174.44;;;10.44;71.76
43488;BME280;29078;41.932;25.554;2024-03-02T06:58:23;99185.63;;;10.46;70.66
43488;BME280;29078;41.932;25.554;2024-03-02T07:00:49;99184.63;;;10.47;70.87
43488;BME280;29078;41.932;25.554;2024-03-02T07:03:14;99186.91;;;10.50;70.36
43488;BME280;29078;41.932;25.554;2024-03-02T07:05:39;99182.25;;;10.53;71.06
43488;BME280;29078;41.932;25.554;2024-03-02T07:08:05;99184.97;;;10.59;68.28
43488;BME280;29078;41.932;25.554;2024-03-02T07:10:31;99182.88;;;10.55;70.19
43488;BME280;29078;41.932;25.554;2024-03-02T07:12:56;99190.97;;;10.53;70.04
43488;BME280;29078;41.932;25.554;2024-03-02T07:15:21;99178.16;;;10.50;71.26
43488;BME280;29078;41.932;25.554;2024-03-02T07:17:52;99161.94;;;10.53;71.13
43488;BME280;29078;41.932;25.554;2024-03-02T07:20:18;99159.13;;;10.55;71.49
43488;BME280;29078;41.932;25.554;2024-03-02T07:22:43;99160.19;;;10.60;70.92
43488;BME280;29078;41.932;25.554;2024-03-02T07:25:08;99166.91;;;10.63;70.72
43488;BME280;29078;41.932;25.554;2024-03-02T07:27:34;99176.66;;;10.62;70.99
43488;BME280;29078;41.932;25.554;2024-03-02T07:30:01;99173.66;;;10.65;70.38
43488;BME280;29078;41.932;25.554;2024-03-02T07:32:26;99163.91;;;10.66;70.92
43488;BME280;29078;41.932;25.554;2024-03-02T07:34:52;99176.91;;;10.67;70.65
43488;BME280;29078;41.932;25.554;2024-03-02T07:37:17;99189.50;;;10.65;70.61
43488;BME280;29078;41.932;25.554;2024-03-02T07:39:43;99184.47;;;10.70;69.23
43488;BME280;29078;41.932;25.554;2024-03-02T07:42:09;99195.03;;;10.70;70.14
43488;BME280;29078;41.932;25.554;2024-03-02T07:44:34;99184.47;;;10.70;70.09
43488;BME280;29078;41.932;25.554;2024-03-02T07:47:00;99182.91;;;10.76;69.75
43488;BME280;29078;41.932;25.554;2024-03-02T07:49:25;99188.63;;;10.79;69.70
43488;BME280;29078;41.932;25.554;2024-03-02T07:51:50;99177.25;;;10.79;69.79
43488;BME280;29078;41.932;25.554;2024-03-02T07:54:16;99164.47;;;10.82;69.56
43488;BME280;29078;41.932;25.554;2024-03-02T07:56:41;99155.78;;;10.89;70.31
43488;BME280;29078;41.932;25.554;2024-03-02T07:59:06;99151.56;;;10.94;69.87
43488;BME280;29078;41.932;25.554;2024-03-02T08:01:32;99162.56;;;10.98;70.04
43488;BME280;29078;41.932;25.554;2024-03-02T08:03:58;99167.69;;;10.99;69.66
43488;BME280;29078;41.932;25.554;2024-03-02T08:06:24;99168.50;;;11.00;69.36
43488;BME280;29078;41.932;25.554;2024-03-02T08:08:52;99167.53;;;11.07;69.71
43488;BME280;29078;41.932;25.554;2024-03-02T08:11:17;99176.91;;;11.10;69.87
43488;BME280;29078;41.932;25.554;2024-03-02T08:13:43;99179.75;;;11.08;70.11
43488;BME280;29078;41.932;25.554;2024-03-02T08:16:08;99173.00;;;11.06;69.86
43488;BME280;29078;41.932;25.554;2024-03-02T08:18:34;99176.28;;;11.08;69.86
43488;BME280;29078;41.932;25.554;2024-03-02T08:20:59;99190.50;;;11.07;69.37
43488;BME280;29078;41.932;25.554;2024-03-02T08:23:25;99186.47;;;11.11;69.74
43488;BME280;29078;41.932;25.554;2024-03-02T08:25:50;99190.22;;;11.17;67.74
43488;BME280;29078;41.932;25.554;2024-03-02T08:28:15;99192.72;;;11.25;67.59
43488;BME280;29078;41.932;25.554;2024-03-02T08:30:41;99186.63;;;11.24;68.12
43488;BME280;29078;41.932;25.554;2024-03-02T08:33:06;99191.72;;;11.26;68.00
43488;BME280;29078;41.932;25.554;2024-03-02T08:35:31;99201.91;;;11.29;68.24
43488;BME280;29078;41.932;25.554;2024-03-02T08:38:01;99188.09;;;11.33;68.52
43488;BME280;29078;41.932;25.554;2024-03-02T08:40:27;99188.94;;;11.34;67.97
43488;BME280;29078;41.932;25.554;2024-03-02T08:42:52;99189.75;;;11.34;68.33
43488;BME280;29078;41.932;25.554;2024-03-02T08:45:17;99196.84;;;11.34;68.16
43488;BME280;29078;41.932;25.554;2024-03-02T08:47:45;99189.94;;;11.33;68.37
43488;BME280;29078;41.932;25.554;2024-03-02T08:50:10;99194.41;;;11.32;68.46
43488;BME280;29078;41.932;25.554;2024-03-02T08:52:35;99192.13;;;11.29;68.79
43488;BME280;29078;41.932;25.554;2024-03-02T08:55:01;99202.09;;;11.27;68.66
43488;BME280;29078;41.932;25.554;2024-03-02T08:57:26;99197.44;;;11.29;68.55
43488;BME280;29078;41.932;25.554;2024-03-02T08:59:51;99197.25;;;11.31;67.99
43488;BME280;29078;41.932;25.554;2024-03-02T09:02:17;99202.13;;;11.34;68.28
43488;BME280;29078;41.932;25.554;2024-03-02T09:04:42;99202.53;;;11.31;68.42
43488;BME280;29078;41.932;25.554;2024-03-02T09:07:07;99206.13;;;11.23;68.59
43488;BME280;29078;41.932;25.554;2024-03-02T09:09:32;99195.13;;;11.20;69.00
43488;BME280;29078;41.932;25.554;2024-03-02T09:11:58;99198.63;;;11.27;68.46
43488;BME280;29078;41.932;25.554;2024-03-02T09:14:23;99196.63;;;11.29;68.36
43488;BME280;29078;41.932;25.554;2024-03-02T09:16:48;99201.91;;;11.29;68.76
43488;BME280;29078;41.932;25.554;2024-03-02T09:19:14;99186.47;;;11.32;68.61
43488;BME280;29078;41.932;25.554;2024-03-02T09:21:39;99184.47;;;11.34;68.82
43488;BME280;29078;41.932;25.554;2024-03-02T09:24:04;99192.81;;;11.38;68.18
43488;BME280;29078;41.932;25.554;2024-03-02T09:26:31;99181.25;;;11.39;68.60
43488;BME280;29078;41.932;25.554;2024-03-02T09:28:57;99183.06;;;11.38;68.24
43488;BME280;29078;41.932;25.554;2024-03-02T09:31:22;99181.66;;;11.42;68.23
43488;BME280;29078;41.932;25.554;2024-03-02T09:33:47;99174.75;;;11.41;68.72
43488;BME280;29078;41.932;25.554;2024-03-02T09:36:22;99177.19;;;11.43;68.45
43488;BME280;29078;41.932;25.554;2024-03-02T09:38:47;99178.34;;;11.34;69.68
43488;BME280;29078;41.932;25.554;2024-03-02T09:41:13;99173.06;;;11.34;69.93
43488;BME280;29078;41.932;25.554;2024-03-02T09:43:39;99163.31;;;11.34;68.66
43488;BME280;29078;41.932;25.554;2024-03-02T09:46:04;99156.16;;;11.28;69.31
43488;BME280;29078;41.932;25.554;2024-03-02T09:48:30;99156.16;;;11.28;69.90
43488;BME280;29078;41.932;25.554;2024-03-02T09:50:55;99170.00;;;11.30;69.50
43488;BME280;29078;41.932;25.554;2024-03-02T09:53:21;99169.84;;;11.38;69.84
43488;BME280;29078;41.932;25.554;2024-03-02T09:55:47;99178.03;;;11.43;70.23
43488;BME280;29078;41.932;25.554;2024-03-02T09:58:12;99178.25;;;11.49;69.49
43488;BME280;29078;41.932;25.554;2024-03-02T10:00:38;99182.34;;;11.51;70.35
43488;BME280;29078;41.932;25.554;2024-03-02T10:03:03;99179.22;;;11.41;70.39
43488;BME280;29078;41.932;25.554;2024-03-02T10:05:30;99185.72;;;11.38;69.68
43488;BME280;29078;41.932;25.554;2024-03-02T10:08:02;99181.00;;;11.34;69.97
43488;BME280;29078;41.932;25.554;2024-03-02T10:10:40;99182.00;;;11.33;70.73
43488;BME280;29078;41.932;25.554;2024-03-02T10:13:07;99183.84;;;11.32;70.39
43488;BME280;29078;41.932;25.554;2024-03-02T10:15:33;99178.78;;;11.37;71.45
43488;BME280;29078;41.932;25.554;2024-03-02T10:17:58;99173.94;;;11.41;70.58
43488;BME280;29078;41.932;25.554;2024-03-02T10:20:24;99177.09;;;11.30;70.93
43488;BME280;29078;41.932;25.554;2024-03-02T10:22:49;99171.38;;;11.26;70.86
43488;BME280;29078;41.932;25.554;2024-03-02T10:25:31;99172.81;;;11.29;70.04
43488;BME280;29078;41.932;25.554;2024-03-02T10:27:57;99167.59;;;11.35;70.12
43488;BME280;29078;41.932;25.554;2024-03-02T10:30:23;99167.81;;;11.40;69.47
43488;BME280;29078;41.932;25.554;2024-03-02T10:32:49;99171.72;;;11.44;70.45
43488;BME280;29078;41.932;25.554;2024-03-02T10:35:14;99174.78;;;11.48;70.35
43488;BME280;29078;41.932;25.554;2024-03-02T10:37:40;99165.03;;;11.49;70.05
43488;BME280;29078;41.932;25.554;2024-03-02T10:40:06;99160.38;;;11.51;71.31
43488;BME280;29078;41.932;25.554;2024-03-02T10:42:33;99164.22;;;11.48;70.35
43488;BME280;29078;41.932;25.554;2024-03-02T10:44:59;99158.50;;;11.44;69.91
43488;BME280;29078;41.932;25.554;2024-03-02T10:47:24;99160.91;;;11.39;69.79
43488;BME280;29078;41.932;25.554;2024-03-02T10:49:52;99154.13;;;11.30;70.90
43488;BME280;29078;41.932;25.554;2024-03-02T10:52:17;99143.47;;;11.17;70.74
43488;BME280;29078;41.932;25.554;2024-03-02T10:54:43;99143.28;;;11.19;71.58
43488;BME280;29078;41.932;25.554;2024-03-02T10:57:08;99142.88;;;11.22;71.75
43488;BME280;29078;41.932;25.554;2024-03-02T10:59:36;99140.25;;;11.22;72.01
43488;BME280;29078;41.932;25.554;2024-03-02T11:02:04;99138.03;;;11.25;72.17
43488;BME280;29078;41.932;25.554;2024-03-02T11:04:32;99139.00;;;11.18;71.30
43488;BME280;29078;41.932;25.554;2024-03-02T11:09:26;99138.00;;;11.19;72.22
43488;BME280;29078;41.932;25.554;2024-03-02T11:14:37;99128.03;;;11.21;71.94
43488;BME280;29078;41.932;25.554;2024-03-02T11:17:02;99120.75;;;11.23;71.83
43488;BME280;29078;41.932;25.554;2024-03-02T11:19:28;99125.97;;;11.16;72.06
43488;BME280;29078;41.932;25.554;2024-03-02T11:21:54;99122.31;;;11.17;72.35
43488;BME280;29078;41.932;25.554;2024-03-02T11:26:49;99125.00;;;11.24;73.08
43488;BME280;29078;41.932;25.554;2024-03-02T11:32:00;99127.91;;;11.29;73.15
43488;BME280;29078;41.932;25.554;2024-03-02T11:34:35;99124.69;;;11.33;72.73
43488;BME280;29078;41.932;25.554;2024-03-02T11:37:01;99121.03;;;11.34;72.48
43488;BME280;29078;41.932;25.554;2024-03-02T11:39:30;99130.41;;;11.37;71.95
43488;BME280;29078;41.932;25.554;2024-03-02T11:41:55;99120.84;;;11.36;71.98
43488;BME280;29078;41.932;25.554;2024-03-02T11:44:21;99126.94;;;11.36;72.36
43488;BME280;29078;41.932;25.554;2024-03-02T11:46:51;99124.06;;;11.31;73.88
43488;BME280;29078;41.932;25.554;2024-03-02T11:49:20;99125.69;;;11.32;73.74
43488;BME280;29078;41.932;25.554;2024-03-02T11:52:01;99128.75;;;11.36;73.00
43488;BME280;29078;41.932;25.554;2024-03-02T11:54:27;99119.00;;;11.36;72.01
43488;BME280;29078;41.932;25.554;2024-03-02T11:56:55;99115.53;;;11.36;73.70
43488;BME280;29078;41.932;25.554;2024-03-02T11:59:20;99117.56;;;11.34;72.82
43488;BME280;29078;41.932;25.554;2024-03-02T12:01:46;99119.78;;;11.30;73.67
43488;BME280;29078;41.932;25.554;2024-03-02T12:04:12;99121.41;;;11.31;72.89
43488;BME280;29078;41.932;25.554;2024-03-02T12:06:38;99114.91;;;11.34;74.21
43488;BME280;29078;41.932;25.554;2024-03-02T12:09:03;99115.72;;;11.34;72.67
43488;BME280;29078;41.932;25.554;2024-03-02T12:11:29;99109.25;;;11.37;73.14
43488;BME280;29078;41.932;25.554;2024-03-02T12:13:54;99106.59;;;11.37;72.73
43488;BME280;29078;41.932;25.554;2024-03-02T12:16:24;99114.53;;;11.37;73.31
43488;BME280;29078;41.932;25.554;2024-03-02T12:18:49;99108.25;;;11.38;73.73
43488;BME280;29078;41.932;25.554;2024-03-02T12:21:14;99107.81;;;11.34;72.33
43488;BME280;29078;41.932;25.554;2024-03-02T12:23:39;99109.63;;;11.34;71.62
43488;BME280;29078;41.932;25.554;2024-03-02T12:26:05;99103.16;;;11.36;72.01
43488;BME280;29078;41.932;25.554;2024-03-02T12:28:31;99110.25;;;11.36;72.60
43488;BME280;29078;41.932;25.554;2024-03-02T12:30:57;99103.34;;;11.35;73.29
43488;BME280;29078;41.932;25.554;2024-03-02T12:33:22;99098.88;;;11.35;74.71
43488;BME280;29078;41.932;25.554;2024-03-02T12:35:48;99110.44;;;11.34;73.73
43488;BME280;29078;41.932;25.554;2024-03-02T12:38:14;99110.88;;;11.38;73.84
43488;BME280;29078;41.932;25.554;2024-03-02T12:40:39;99103.75;;;11.38;72.61
43488;BME280;29078;41.932;25.554;2024-03-02T12:43:05;99107.03;;;11.40;72.03
43488;BME280;29078;41.932;25.554;2024-03-02T12:45:30;99101.94;;;11.39;73.90
43488;BME280;29078;41.932;25.554;2024-03-02T12:47:56;99103.38;;;11.41;74.06
43488;BME280;29078;41.932;25.554;2024-03-02T12:50:21;99113.75;;;11.43;73.66
43488;BME280;29078;41.932;25.554;2024-03-02T12:52:53;99106.03;;;11.41;72.29
43488;BME280;29078;41.932;25.554;2024-03-02T12:55:19;99110.88;;;11.38;72.82
43488;BME280;29078;41.932;25.554;2024-03-02T12:57:44;99107.63;;;11.36;72.25
43488;BME280;29078;41.932;25.554;2024-03-02T13:00:10;99104.16;;;11.35;73.60
43488;BME280;29078;41.932;25.554;2024-03-02T13:02:36;99107.63;;;11.36;73.53